createdAt,value
2018-11-11T00:00:17.861Z,24.80
2018-11-11T00:02:47.137Z,27.17
2018-11-11T00:05:16.162Z,26.45
2018-11-11T00:07:45.142Z,28.07
2018-11-11T00:10:14.232Z,26.75
2018-11-11T00:12:43.215Z,27.85
2018-11-11T00:15:14.882Z,25.27
2018-11-11T00:17:45.263Z,24.07
2018-11-11T00:20:14.571Z,24.77
2018-11-11T00:22:43.880Z,24.77
2018-11-11T00:25:12.831Z,27.32
2018-11-11T00:27:41.957Z,25.90
2018-11-11T00:30:14.927Z,26.23
2018-11-11T00:32:44.132Z,26.12
2018-11-11T00:35:13.272Z,24.90
2018-11-11T00:37:42.361Z,23.67
2018-11-11T00:40:13.383Z,24.37
2018-11-11T00:42:42.971Z,23.55
2018-11-11T00:45:12.627Z,23.75
2018-11-11T00:47:41.579Z,22.05
2018-11-11T00:50:12.101Z,23.12
2018-11-11T00:52:41.387Z,23.83
2018-11-11T00:55:13.419Z,27.37
2018-11-11T00:57:42.801Z,22.60
2018-11-11T01:00:13.922Z,21.42
2018-11-11T01:02:43.939Z,24.50
2018-11-11T01:05:13.840Z,24.27
2018-11-11T01:07:43.439Z,23.27
2018-11-11T01:10:14.955Z,24.07
2018-11-11T01:12:44.505Z,23.32
2018-11-11T01:15:14.977Z,24.82
2018-11-11T01:17:43.958Z,23.30
2018-11-11T01:20:14.155Z,27.60
2018-11-11T01:22:43.545Z,23.35
2018-11-11T01:25:14.414Z,24.00
2018-11-11T01:27:43.988Z,22.37
2018-11-11T01:30:13.319Z,25.90
2018-11-11T01:32:42.287Z,24.87
2018-11-11T01:35:13.645Z,25.23
2018-11-11T01:37:43.054Z,25.95
2018-11-11T01:40:12.441Z,22.22
2018-11-11T01:42:41.605Z,23.55
2018-11-11T01:45:13.202Z,26.30
2018-11-11T01:47:42.407Z,23.07
2018-11-11T01:50:12.328Z,24.30
2018-11-11T01:52:41.796Z,26.55
2018-11-11T01:55:12.351Z,23.02
2018-11-11T01:57:41.316Z,25.62
2018-11-11T02:00:13.487Z,23.45
2018-11-11T02:02:42.844Z,23.60
2018-11-11T02:05:12.423Z,28.38
2018-11-11T02:07:42.516Z,25.85
2018-11-11T02:10:12.027Z,24.32
2018-11-11T02:12:42.215Z,25.65
2018-11-11T02:15:12.394Z,26.90
2018-11-11T02:17:41.557Z,26.05
2018-11-11T02:20:19.443Z,26.10
2018-11-11T02:22:49.383Z,27.90
2018-11-11T02:25:18.895Z,23.70
2018-11-11T02:27:48.055Z,27.98
2018-11-11T02:30:18.327Z,25.97
2018-11-11T02:32:48.133Z,25.68
2018-11-11T02:35:17.330Z,26.73
2018-11-11T02:37:46.388Z,26.70
2018-11-11T02:40:17.175Z,25.23
2018-11-11T02:42:46.551Z,28.20
2018-11-11T02:45:16.796Z,30.20
2018-11-11T02:47:45.856Z,27.00
2018-11-11T02:50:16.243Z,26.97
2018-11-11T02:52:45.841Z,24.85
2018-11-11T02:55:15.623Z,28.05
2018-11-11T02:57:45.209Z,26.48
2018-11-11T03:00:15.855Z,28.90
2018-11-11T03:02:45.582Z,28.50
2018-11-11T03:05:15.792Z,28.25
2018-11-11T03:07:44.995Z,29.05
2018-11-11T03:10:15.421Z,26.50
2018-11-11T03:12:45.151Z,29.72
2018-11-11T03:15:14.613Z,27.70
2018-11-11T03:17:43.576Z,28.65
2018-11-11T03:20:13.219Z,27.02
2018-11-11T03:22:42.303Z,29.27
2018-11-11T03:25:13.150Z,30.45
2018-11-11T03:27:42.377Z,26.57
2018-11-11T03:30:13.116Z,29.10
2018-11-11T03:32:42.171Z,29.40
2018-11-11T03:35:12.192Z,29.23
2018-11-11T03:37:41.722Z,30.62
2018-11-11T03:40:13.567Z,29.70
2018-11-11T03:42:42.777Z,31.97
2018-11-11T03:45:13.186Z,31.07
2018-11-11T03:47:43.330Z,29.20
2018-11-11T03:50:12.755Z,28.45
2018-11-11T03:52:42.543Z,28.83
2018-11-11T03:55:12.022Z,27.25
2018-11-11T03:57:41.463Z,28.98
2018-11-11T04:00:12.699Z,30.62
2018-11-11T04:02:41.758Z,28.95
2018-11-11T04:05:12.643Z,30.02
2018-11-11T04:07:41.738Z,29.52
2018-11-11T04:10:14.233Z,32.38
2018-11-11T04:12:43.598Z,30.08
2018-11-11T04:15:14.947Z,28.67
2018-11-11T04:17:44.134Z,28.10
2018-11-11T04:20:14.877Z,29.42
2018-11-11T04:22:43.882Z,27.52
2018-11-11T04:25:13.401Z,29.32
2018-11-11T04:27:42.405Z,29.67
2018-11-11T04:30:12.824Z,28.02
2018-11-11T04:32:42.388Z,29.55
2018-11-11T04:35:12.252Z,32.45
2018-11-11T04:37:41.279Z,29.07
2018-11-11T04:40:11.759Z,28.25
2018-11-11T04:42:40.712Z,29.32
2018-11-11T04:45:12.824Z,27.87
2018-11-11T04:47:42.221Z,31.48
2018-11-11T04:50:12.721Z,28.67
2018-11-11T04:52:42.120Z,28.90
2018-11-11T04:55:11.400Z,28.07
2018-11-11T04:57:41.653Z,30.05
2018-11-11T05:00:12.173Z,29.67
2018-11-11T05:02:41.658Z,26.62
2018-11-11T05:05:11.911Z,30.12
2018-11-11T05:07:41.409Z,29.35
2018-11-11T05:10:11.622Z,26.82
2018-11-11T05:12:40.632Z,25.12
2018-11-11T05:15:11.183Z,28.87
2018-11-11T05:17:40.123Z,27.45
2018-11-11T05:20:10.205Z,28.38
2018-11-11T05:22:39.995Z,29.45
2018-11-11T05:25:10.690Z,29.07
2018-11-11T05:27:39.781Z,29.45
2018-11-11T05:30:10.730Z,29.07
2018-11-11T05:32:39.930Z,29.95
2018-11-11T05:35:10.682Z,27.00
2018-11-11T05:37:40.589Z,27.52
2018-11-11T05:40:11.117Z,31.37
2018-11-11T05:42:41.045Z,28.95
2018-11-11T05:45:11.452Z,25.15
2018-11-11T05:47:41.068Z,28.00
2018-11-11T05:50:12.424Z,27.15
2018-11-11T05:52:41.734Z,27.67
2018-11-11T05:55:10.918Z,28.75
2018-11-11T05:57:40.102Z,28.70
2018-11-11T06:00:11.803Z,29.00
2018-11-11T06:02:40.960Z,28.62
2018-11-11T06:05:11.707Z,29.95
2018-11-11T06:07:40.864Z,26.85
2018-11-11T06:10:11.636Z,32.45
2018-11-11T06:12:40.660Z,30.88
2018-11-11T06:15:11.265Z,29.37
2018-11-11T06:17:40.340Z,30.88
2018-11-11T06:20:12.437Z,27.95
2018-11-11T06:22:41.417Z,30.32
2018-11-11T06:25:11.019Z,28.87
2018-11-11T06:27:40.102Z,28.02
2018-11-11T06:30:10.154Z,26.35
2018-11-11T06:32:39.135Z,30.57
2018-11-11T06:35:08.934Z,32.98
2018-11-11T06:37:38.774Z,32.25
2018-11-11T06:40:09.522Z,30.68
2018-11-11T06:42:38.663Z,59.27
2018-11-11T06:45:09.407Z,37.28
2018-11-11T06:47:38.413Z,32.90
2018-11-11T06:50:10.949Z,31.95
2018-11-11T06:52:40.777Z,32.28
2018-11-11T06:55:09.983Z,33.35
2018-11-11T06:57:39.378Z,33.48
2018-11-11T07:00:11.051Z,31.20
2018-11-11T07:02:44.647Z,32.42
2018-11-11T07:05:20.213Z,33.28
2018-11-11T07:07:49.318Z,32.28
2018-11-11T07:10:18.301Z,33.18
2018-11-11T07:12:47.269Z,32.33
2018-11-11T07:15:16.286Z,35.00
2018-11-11T07:17:45.311Z,31.57
2018-11-11T07:20:14.877Z,36.80
2018-11-11T07:22:44.286Z,34.50
2018-11-11T07:25:16.318Z,34.73
2018-11-11T07:27:45.347Z,37.13
2018-11-11T07:30:14.426Z,30.52
2018-11-11T07:32:43.456Z,34.55
2018-11-11T07:35:12.502Z,36.63
2018-11-11T07:37:41.486Z,34.90
2018-11-11T07:40:12.873Z,34.43
2018-11-11T07:42:42.046Z,35.23
2018-11-11T07:45:11.150Z,30.40
2018-11-11T07:47:40.198Z,33.73
2018-11-11T07:50:10.747Z,32.53
2018-11-11T07:52:39.926Z,34.05
2018-11-11T07:55:11.502Z,32.90
2018-11-11T07:57:41.040Z,36.00
2018-11-11T08:00:12.772Z,34.03
2018-11-11T08:02:42.440Z,33.48
2018-11-11T08:05:11.398Z,33.38
2018-11-11T08:07:40.348Z,32.00
2018-11-11T08:10:21.032Z,31.45
2018-11-11T08:12:50.034Z,31.70
2018-11-11T08:15:19.046Z,32.85
2018-11-11T08:17:48.137Z,32.93
2018-11-11T08:20:17.343Z,32.28
2018-11-11T08:22:49.618Z,29.42
2018-11-11T08:25:18.635Z,29.25
2018-11-11T08:27:47.894Z,29.35
2018-11-11T08:30:16.965Z,30.15
2018-11-11T08:32:46.064Z,28.52
2018-11-11T08:35:15.027Z,33.08
2018-11-11T08:37:43.994Z,27.32
2018-11-11T08:40:13.179Z,29.57
2018-11-11T08:42:42.242Z,28.00
2018-11-11T08:45:13.011Z,29.02
2018-11-11T08:47:43.311Z,28.50
2018-11-11T08:50:13.325Z,28.87
2018-11-11T08:52:42.329Z,25.02
2018-11-11T08:55:11.269Z,30.60
2018-11-11T08:57:40.273Z,28.67
2018-11-11T09:00:11.293Z,25.27
2018-11-11T09:02:40.555Z,28.83
2018-11-11T09:05:09.517Z,27.10
2018-11-11T09:07:39.056Z,27.50
2018-11-11T09:10:10.389Z,27.07
2018-11-11T09:12:39.656Z,26.60
2018-11-11T09:15:11.245Z,24.95
2018-11-11T09:17:40.645Z,25.27
2018-11-11T09:20:10.547Z,22.73
2018-11-11T09:22:39.781Z,24.90
2018-11-11T09:25:09.503Z,25.77
2018-11-11T09:27:39.287Z,23.92
2018-11-11T09:30:10.888Z,23.30
2018-11-11T09:32:40.183Z,25.12
2018-11-11T09:35:10.221Z,24.40
2018-11-11T09:37:40.369Z,23.20
2018-11-11T09:40:10.613Z,24.82
2018-11-11T09:42:40.562Z,24.00
2018-11-11T09:45:11.789Z,22.90
2018-11-11T09:47:41.161Z,23.27
2018-11-11T09:50:13.035Z,23.52
2018-11-11T09:52:42.238Z,22.85
2018-11-11T09:55:12.346Z,21.73
2018-11-11T09:57:41.727Z,20.55
2018-11-11T10:00:14.464Z,20.77
2018-11-11T10:02:46.064Z,23.55
2018-11-11T10:05:19.834Z,22.55
2018-11-11T10:07:58.262Z,23.00
2018-11-11T10:10:37.274Z,22.20
2018-11-11T10:13:16.302Z,20.72
2018-11-11T10:16:48.308Z,34.53
2018-11-11T10:19:22.159Z,18.77
2018-11-11T10:21:56.060Z,22.82
2018-11-11T10:24:33.270Z,24.02
2018-11-11T10:27:06.660Z,23.15
2018-11-11T10:29:41.435Z,25.17
2018-11-11T10:32:26.758Z,22.52
2018-11-11T10:34:59.989Z,24.07
2018-11-11T10:37:33.142Z,21.00
2018-11-11T10:40:09.646Z,21.25
2018-11-11T10:42:44.056Z,24.87
2018-11-11T10:45:20.913Z,23.70
2018-11-11T10:47:53.780Z,27.45
2018-11-11T10:50:28.360Z,21.42
2018-11-11T10:52:57.539Z,21.90
2018-11-11T10:55:26.673Z,18.87
2018-11-11T10:57:55.672Z,21.17
2018-11-11T11:00:32.734Z,18.70
2018-11-11T11:03:01.820Z,21.85
2018-11-11T11:05:30.782Z,20.65
2018-11-11T11:07:59.835Z,22.25
2018-11-11T11:10:28.795Z,19.80
2018-11-11T11:12:57.782Z,18.52
2018-11-11T11:15:26.767Z,19.42
2018-11-11T11:17:55.837Z,18.65
2018-11-11T11:20:24.791Z,21.50
2018-11-11T11:22:53.925Z,19.35
2018-11-11T11:25:23.052Z,19.10
2018-11-11T11:27:52.271Z,19.67
2018-11-11T11:30:21.390Z,19.25
2018-11-11T11:32:50.530Z,19.98
2018-11-11T11:35:19.813Z,20.97
2018-11-11T11:37:48.973Z,17.98
2018-11-11T11:40:18.044Z,19.90
2018-11-11T11:42:46.998Z,19.73
2018-11-11T11:45:16.134Z,20.62
2018-11-11T11:47:45.161Z,19.12
2018-11-11T11:50:14.339Z,20.20
2018-11-11T11:52:44.207Z,18.82
2018-11-11T11:55:13.899Z,19.27
2018-11-11T11:57:42.963Z,19.98
2018-11-11T12:00:13.820Z,19.15
2018-11-11T12:02:43.096Z,18.67
2018-11-11T12:05:12.089Z,17.17
2018-11-11T12:07:41.080Z,17.12
2018-11-11T12:10:10.884Z,16.20
2018-11-11T12:12:39.907Z,17.80
2018-11-11T12:15:09.487Z,14.47
2018-11-11T12:17:38.562Z,15.28
2018-11-11T12:20:08.288Z,16.67
2018-11-11T12:22:37.729Z,15.05
2018-11-11T12:25:08.036Z,12.68
2018-11-11T12:27:37.010Z,15.65
2018-11-11T12:30:07.371Z,12.53
2018-11-11T12:32:36.460Z,11.48
2018-11-11T12:35:06.592Z,12.15
2018-11-11T12:37:35.882Z,10.55
2018-11-11T12:40:06.473Z,10.08
2018-11-11T12:42:35.778Z,8.98
2018-11-11T12:45:05.926Z,10.60
2018-11-11T12:47:35.112Z,9.15
2018-11-11T12:50:05.116Z,8.35
2018-11-11T12:52:34.108Z,8.70
2018-11-11T12:55:03.530Z,7.67
2018-11-11T12:57:32.517Z,8.08
2018-11-11T13:00:01.493Z,8.18
2018-11-11T13:02:30.439Z,8.20
2018-11-11T13:04:59.411Z,7.75
2018-11-11T13:07:28.399Z,7.40
2018-11-11T13:09:57.421Z,7.80
2018-11-11T13:12:26.713Z,8.93
2018-11-11T13:14:55.732Z,7.85
2018-11-11T13:17:24.749Z,8.75
2018-11-11T13:19:53.788Z,8.33
2018-11-11T13:22:23.210Z,8.63
2018-11-11T13:24:52.500Z,7.58
2018-11-11T13:27:21.452Z,8.30
2018-11-11T13:29:50.709Z,8.40
2018-11-11T13:32:19.842Z,6.78
2018-11-11T13:34:49.950Z,8.13
2018-11-11T13:37:18.929Z,7.83
2018-11-11T13:39:47.905Z,7.22
2018-11-11T13:42:17.256Z,7.78
2018-11-11T13:44:46.262Z,7.37
2018-11-11T13:47:15.516Z,7.75
2018-11-11T13:49:44.680Z,7.17
2018-11-11T13:52:13.593Z,7.35
2018-11-11T13:54:42.564Z,6.65
2018-11-11T13:57:11.508Z,7.70
2018-11-11T13:59:40.618Z,7.55
2018-11-11T14:02:09.564Z,9.00
2018-11-11T14:04:38.579Z,5.85
2018-11-11T14:07:07.586Z,6.15
2018-11-11T14:09:36.668Z,5.80
2018-11-11T14:12:05.880Z,5.70
2018-11-11T14:14:34.985Z,6.28
2018-11-11T14:17:03.928Z,6.17
2018-11-11T14:19:32.943Z,6.50
2018-11-11T14:22:02.171Z,5.62
2018-11-11T14:24:31.115Z,6.33
2018-11-11T14:27:00.210Z,5.78
2018-11-11T14:29:29.342Z,9.70
2018-11-11T14:31:58.375Z,4.83
2018-11-11T14:34:27.597Z,6.33
2018-11-11T14:36:56.693Z,4.97
2018-11-11T14:39:25.898Z,5.50
2018-11-11T14:41:54.841Z,4.15
2018-11-11T14:44:23.771Z,4.87
2018-11-11T14:46:52.750Z,6.08
2018-11-11T14:49:21.733Z,4.45
2018-11-11T14:51:50.861Z,4.10
2018-11-11T14:54:20.116Z,3.62
2018-11-11T14:56:49.309Z,4.75
2018-11-11T14:59:18.238Z,4.35
2018-11-11T15:01:47.779Z,5.10
2018-11-11T15:04:16.783Z,3.72
2018-11-11T15:06:45.712Z,4.72
2018-11-11T15:09:14.715Z,6.58
2018-11-11T15:11:43.692Z,6.15
2018-11-11T15:14:12.652Z,5.45
2018-11-11T15:16:41.701Z,5.67
2018-11-11T15:19:10.792Z,5.90
2018-11-11T15:21:39.783Z,8.08
2018-11-11T15:24:08.939Z,9.05
2018-11-11T15:26:38.020Z,6.50
2018-11-11T15:29:06.983Z,8.43
2018-11-11T15:34:14.968Z,5.83
2018-11-11T15:36:43.892Z,4.75
2018-11-11T15:39:12.888Z,6.03
2018-11-11T15:41:41.912Z,4.67
2018-11-11T15:44:11.072Z,4.47
2018-11-11T15:46:40.116Z,4.08
2018-11-11T15:49:09.292Z,4.60
2018-11-11T15:51:38.227Z,6.85
2018-11-11T15:54:07.545Z,5.12
2018-11-11T15:56:36.663Z,4.65
2018-11-11T15:59:05.976Z,7.42
2018-11-11T16:01:35.244Z,5.70
2018-11-11T16:04:04.451Z,8.23
2018-11-11T16:06:33.604Z,6.58
2018-11-11T16:09:02.711Z,4.72
2018-11-11T16:11:31.858Z,5.00
2018-11-11T16:14:00.960Z,6.47
2018-11-11T16:16:30.084Z,6.05
2018-11-11T16:18:59.484Z,5.72
2018-11-11T16:21:28.553Z,6.62
2018-11-11T16:23:57.542Z,8.83
2018-11-11T16:26:26.539Z,7.92
2018-11-11T16:28:55.492Z,8.90
2018-11-11T16:31:24.617Z,7.33
2018-11-11T16:33:53.965Z,9.25
2018-11-11T16:36:23.145Z,6.97
2018-11-11T16:38:52.338Z,8.80
2018-11-11T16:41:21.701Z,7.47
2018-11-11T16:43:50.980Z,8.93
2018-11-11T16:46:20.184Z,9.58
2018-11-11T16:48:49.384Z,12.07
2018-11-11T16:51:18.574Z,13.03
2018-11-11T16:53:47.765Z,12.80
2018-11-11T16:56:16.958Z,9.15
2018-11-11T16:58:46.118Z,10.30
2018-11-11T17:01:15.465Z,13.72
2018-11-11T17:03:44.406Z,12.58
2018-11-11T17:06:13.529Z,10.98
2018-11-11T17:08:42.687Z,9.78
2018-11-11T17:11:11.701Z,11.38
2018-11-11T17:13:40.785Z,12.23
2018-11-11T17:16:09.813Z,10.60
2018-11-11T17:18:38.811Z,13.13
2018-11-11T17:21:07.819Z,11.97
2018-11-11T17:23:36.931Z,13.13
2018-11-11T17:26:06.774Z,10.50
2018-11-11T17:28:36.381Z,11.80
2018-11-11T17:31:05.905Z,9.90
2018-11-11T17:33:34.981Z,13.88
2018-11-11T17:36:04.556Z,14.23
2018-11-11T17:38:33.759Z,14.50
2018-11-11T17:41:02.953Z,13.60
2018-11-11T17:43:32.088Z,13.15
2018-11-11T17:46:01.105Z,14.65
2018-11-11T17:48:30.158Z,15.00
2018-11-11T17:50:59.325Z,12.23
2018-11-11T17:53:28.361Z,13.18
2018-11-11T17:55:57.421Z,14.23
2018-11-11T17:58:28.904Z,23.27
2018-11-11T18:00:57.893Z,19.87
2018-11-11T18:03:27.172Z,14.45
2018-11-11T18:05:56.293Z,19.65
2018-11-11T18:08:25.285Z,19.23
2018-11-11T18:10:55.456Z,21.07
2018-11-11T18:13:24.739Z,14.60
2018-11-11T18:15:54.771Z,14.28
2018-11-11T18:18:23.797Z,13.85
2018-11-11T18:20:52.806Z,12.63
2018-11-11T18:23:21.818Z,13.75
2018-11-11T18:25:51.412Z,13.35
2018-11-11T18:28:21.141Z,14.35
2018-11-11T18:30:50.464Z,14.78
2018-11-11T18:33:19.512Z,12.15
2018-11-11T18:35:48.588Z,11.70
2018-11-11T18:38:17.555Z,13.03
2018-11-11T18:40:46.532Z,11.05
2018-11-11T18:43:15.689Z,12.23
2018-11-11T18:45:44.802Z,12.75
2018-11-11T18:48:13.891Z,11.25
2018-11-11T18:50:42.844Z,10.85
2018-11-11T18:53:11.970Z,11.10
2018-11-11T18:55:41.631Z,11.68
2018-11-11T18:58:10.753Z,11.50
2018-11-11T19:00:39.823Z,10.85
2018-11-11T19:03:09.474Z,12.70
2018-11-11T19:05:38.747Z,12.20
2018-11-11T19:08:07.761Z,11.22
2018-11-11T19:10:37.508Z,10.78
2018-11-11T19:13:08.009Z,12.45
2018-11-11T19:15:37.787Z,10.65
2018-11-11T19:18:06.829Z,10.43
2018-11-11T19:20:36.093Z,12.75
2018-11-11T19:23:06.707Z,12.25
2018-11-11T19:25:36.011Z,11.22
2018-11-11T19:28:05.591Z,10.60
2018-11-11T19:30:34.875Z,10.88
2018-11-11T19:33:04.769Z,11.12
2018-11-11T19:35:34.013Z,12.53
2018-11-11T19:38:03.010Z,11.97
2018-11-11T19:40:32.037Z,12.90
2018-11-11T19:43:01.850Z,13.38
2018-11-11T19:45:31.727Z,12.73
2018-11-11T19:48:00.791Z,11.40
2018-11-11T19:50:30.965Z,13.90
2018-11-11T19:53:00.545Z,13.50
2018-11-11T19:55:30.062Z,15.13
2018-11-11T19:57:59.073Z,11.15
2018-11-11T20:00:37.684Z,16.20
2018-11-11T20:03:07.554Z,13.30
2018-11-11T20:05:36.674Z,18.50
2018-11-11T20:08:06.185Z,14.70
2018-11-11T20:10:35.250Z,13.53
2018-11-11T20:13:04.450Z,15.18
2018-11-11T20:15:34.323Z,13.78
2018-11-11T20:18:03.330Z,14.00
2018-11-11T20:20:33.935Z,12.85
2018-11-11T20:23:02.984Z,12.75
2018-11-11T20:25:34.836Z,11.65
2018-11-11T20:28:04.898Z,14.65
2018-11-11T20:30:35.917Z,13.68
2018-11-11T20:33:05.972Z,13.58
2018-11-11T20:35:35.226Z,14.43
2018-11-11T20:38:04.616Z,13.45
2018-11-11T20:40:33.859Z,17.35
2018-11-11T20:43:03.397Z,16.05
2018-11-11T20:45:33.636Z,13.98
2018-11-11T20:48:03.125Z,15.95
2018-11-11T20:50:33.304Z,15.60
2018-11-11T20:53:03.867Z,14.28
2018-11-11T20:55:33.094Z,14.68
2018-11-11T20:58:03.143Z,13.95
2018-11-11T21:00:34.976Z,14.47
2018-11-11T21:03:04.882Z,14.05
2018-11-11T21:05:34.085Z,12.55
2018-11-11T21:08:03.871Z,14.23
2018-11-11T21:10:34.378Z,16.23
2018-11-11T21:13:04.175Z,14.07
2018-11-11T21:15:33.258Z,14.18
2018-11-11T21:18:02.910Z,14.83
2018-11-11T21:20:33.480Z,18.77
2018-11-11T21:23:03.091Z,13.62
2018-11-11T21:25:33.059Z,14.13
2018-11-11T21:28:02.665Z,14.98
2018-11-11T21:30:34.003Z,13.83
2018-11-11T21:33:03.243Z,12.60
2018-11-11T21:35:32.252Z,16.23
2018-11-11T21:38:01.296Z,13.45
2018-11-11T21:40:30.539Z,14.63
2018-11-11T21:42:59.585Z,17.20
2018-11-11T21:45:29.257Z,14.83
2018-11-11T21:47:59.016Z,14.25
2018-11-11T21:50:28.892Z,15.90
2018-11-11T21:53:07.258Z,18.25
2018-11-11T21:55:37.023Z,16.30
2018-11-11T21:58:06.238Z,16.65
2018-11-11T22:00:35.966Z,14.53
2018-11-11T22:03:05.084Z,13.60
2018-11-11T22:05:34.189Z,13.75
2018-11-11T22:08:03.701Z,14.38
2018-11-11T22:10:33.854Z,12.82
2018-11-11T22:13:03.346Z,13.50
2018-11-11T22:15:33.401Z,14.95
2018-11-11T22:18:02.770Z,15.98
2018-11-11T22:20:31.916Z,18.60
2018-11-11T22:23:00.932Z,15.43
2018-11-11T22:25:30.208Z,15.78
2018-11-11T22:27:59.471Z,14.28
2018-11-11T22:30:29.272Z,16.75
2018-11-11T22:32:58.802Z,15.68
2018-11-11T22:35:27.858Z,14.23
2018-11-11T22:37:56.850Z,14.45
2018-11-11T22:40:26.310Z,14.28
2018-11-11T22:42:55.276Z,15.08
2018-11-11T22:45:24.328Z,13.88
2018-11-11T22:47:53.430Z,15.40
2018-11-11T22:50:22.595Z,13.72
2018-11-11T22:52:51.760Z,15.93
2018-11-11T22:55:21.162Z,13.65
2018-11-11T22:57:50.360Z,15.70
2018-11-11T23:00:24.694Z,13.58
2018-11-11T23:02:54.157Z,12.40
2018-11-11T23:05:24.001Z,14.68
2018-11-11T23:07:53.037Z,13.80
2018-11-11T23:10:22.306Z,12.90
2018-11-11T23:12:51.333Z,15.90
2018-11-11T23:15:21.541Z,13.38
2018-11-11T23:17:50.568Z,13.30
2018-11-11T23:20:20.413Z,13.32
2018-11-11T23:22:49.465Z,13.48
2018-11-11T23:25:18.817Z,14.20
2018-11-11T23:27:48.069Z,15.40
2018-11-11T23:30:18.833Z,14.10
2018-11-11T23:32:48.065Z,13.58
2018-11-11T23:35:17.487Z,14.65
2018-11-11T23:37:46.739Z,13.72
2018-11-11T23:40:17.604Z,12.90
2018-11-11T23:42:47.589Z,15.13
2018-11-11T23:45:16.635Z,13.65
2018-11-11T23:47:45.649Z,12.85
2018-11-11T23:50:16.315Z,13.32
2018-11-11T23:52:45.826Z,15.08
2018-11-11T23:55:16.036Z,13.30
2018-11-11T23:57:44.999Z,13.08
